createdAt,value
2022-09-20T00:01:35.360Z,9.34
2022-09-20T00:04:04.625Z,9.38
2022-09-20T00:06:34.134Z,9.40
2022-09-20T00:09:03.065Z,9.40
2022-09-20T00:11:33.834Z,9.41
2022-09-20T00:14:05.432Z,9.41
2022-09-20T00:16:38.493Z,9.40
2022-09-20T00:19:07.020Z,9.41
2022-09-20T00:21:38.579Z,9.40
2022-09-20T00:24:06.592Z,9.35
2022-09-20T00:26:34.160Z,9.28
2022-09-20T00:29:01.828Z,9.22
2022-09-20T00:31:29.556Z,9.16
2022-09-20T00:34:17.002Z,9.08
2022-09-20T00:36:45.331Z,8.97
2022-09-20T00:39:15.451Z,8.91
2022-09-20T00:41:46.598Z,8.87
2022-09-20T00:45:04.437Z,8.87
2022-09-20T00:48:01.656Z,8.88
2022-09-20T00:50:55.820Z,8.90
2022-09-20T00:53:35.344Z,8.95
2022-09-20T00:56:13.410Z,9.02
2022-09-20T00:58:46.723Z,9.11
2022-09-20T01:01:15.221Z,9.13
2022-09-20T01:03:51.369Z,9.16
2022-09-20T01:06:22.676Z,9.14
2022-09-20T01:09:01.388Z,9.13
2022-09-20T01:11:37.549Z,9.08
2022-09-20T01:14:15.664Z,9.01
2022-09-20T01:16:47.012Z,8.93
2022-09-20T01:19:29.114Z,8.95
2022-09-20T01:21:56.628Z,8.96
2022-09-20T01:24:38.782Z,8.88
2022-09-20T01:27:11.733Z,8.79
2022-09-20T01:29:50.824Z,8.76
2022-09-20T01:32:23.530Z,8.79
2022-09-20T01:34:55.056Z,8.87
2022-09-20T01:37:42.865Z,8.91
2022-09-20T01:40:28.205Z,8.97
2022-09-20T01:43:25.401Z,9.06
2022-09-20T01:45:53.045Z,9.17
2022-09-20T01:48:34.682Z,9.25
2022-09-20T01:51:37.162Z,9.31
2022-09-20T01:54:48.183Z,9.29
2022-09-20T01:57:47.179Z,9.27
2022-09-20T02:00:30.432Z,9.26
2022-09-20T02:03:21.289Z,9.25
2022-09-20T02:06:35.694Z,9.24
2022-09-20T02:09:53.102Z,9.27
2022-09-20T02:12:54.869Z,9.23
2022-09-20T02:15:50.799Z,9.19
2022-09-20T02:18:44.795Z,9.20
2022-09-20T02:21:39.884Z,9.22
2022-09-20T02:24:29.692Z,9.23
2022-09-20T02:27:30.272Z,9.23
2022-09-20T02:30:21.762Z,9.25
2022-09-20T02:33:41.583Z,9.24
2022-09-20T02:36:23.788Z,9.17
2022-09-20T02:39:25.146Z,9.18
2022-09-20T02:42:10.248Z,9.22
2022-09-20T02:45:19.539Z,9.22
2022-09-20T02:47:48.244Z,9.24
2022-09-20T02:50:44.356Z,9.23
2022-09-20T02:53:29.540Z,9.21
2022-09-20T02:56:15.131Z,9.24
2022-09-20T02:59:07.655Z,9.28
2022-09-20T03:01:46.814Z,9.29
2022-09-20T03:04:42.137Z,9.34
2022-09-20T03:07:43.560Z,9.32
2022-09-20T03:10:41.564Z,9.34
2022-09-20T03:13:33.153Z,9.26
2022-09-20T03:16:30.311Z,9.21
2022-09-20T03:19:22.938Z,9.17
2022-09-20T03:22:01.551Z,9.20
2022-09-20T03:25:00.518Z,9.20
2022-09-20T03:27:42.259Z,9.21
2022-09-20T03:30:45.446Z,9.21
2022-09-20T03:33:33.551Z,9.21
2022-09-20T03:36:25.432Z,9.20
2022-09-20T03:39:10.716Z,9.21
2022-09-20T03:42:03.404Z,9.23
2022-09-20T03:44:54.715Z,9.22
2022-09-20T03:48:06.503Z,9.18
2022-09-20T03:51:05.321Z,9.21
2022-09-20T03:53:55.333Z,9.28
2022-09-20T03:56:58.411Z,9.33
2022-09-20T03:59:43.617Z,9.39
2022-09-20T04:02:59.760Z,9.46
2022-09-20T04:05:54.404Z,9.53
2022-09-20T04:08:50.024Z,9.60
2022-09-20T04:11:41.249Z,9.67
2022-09-20T04:14:28.772Z,9.73
2022-09-20T04:17:49.020Z,9.76
2022-09-20T04:20:48.679Z,9.75
2022-09-20T04:23:41.666Z,9.76
2022-09-20T04:26:09.646Z,9.75
2022-09-20T04:29:03.928Z,9.67
2022-09-20T04:31:54.201Z,9.62
2022-09-20T04:34:32.206Z,9.52
2022-09-20T04:37:04.526Z,9.39
2022-09-20T04:39:48.952Z,9.31
2022-09-20T04:43:01.658Z,9.26
2022-09-20T04:45:43.454Z,9.25
2022-09-20T04:48:47.296Z,9.25
2022-09-20T04:51:54.702Z,9.23
2022-09-20T04:55:03.107Z,9.19
2022-09-20T04:57:47.809Z,9.13
2022-09-20T05:00:22.293Z,9.15
2022-09-20T05:03:22.268Z,9.14
2022-09-20T05:06:13.888Z,9.12
2022-09-20T05:09:29.384Z,9.15
2022-09-20T05:12:15.281Z,9.22
2022-09-20T05:15:09.450Z,9.34
2022-09-20T05:18:10.465Z,9.41
2022-09-20T05:20:53.382Z,9.50
2022-09-20T05:23:44.694Z,9.54
2022-09-20T05:26:35.363Z,9.59
2022-09-20T05:32:28.809Z,9.65
2022-09-20T05:35:37.843Z,9.66
2022-09-20T05:38:36.496Z,9.68
2022-09-20T05:41:18.621Z,9.70
2022-09-20T05:44:09.677Z,9.70
2022-09-20T05:47:20.268Z,9.67
2022-09-20T05:50:31.755Z,9.69
2022-09-20T05:53:35.372Z,9.71
2022-09-20T05:56:36.722Z,9.67
2022-09-20T05:59:30.854Z,9.67
2022-09-20T06:02:33.587Z,9.67
2022-09-20T06:05:18.611Z,9.70
2022-09-20T06:08:23.900Z,9.65
2022-09-20T06:10:59.653Z,9.55
2022-09-20T06:13:55.945Z,9.53
2022-09-20T06:16:48.969Z,9.36
2022-09-20T06:19:31.340Z,9.27
2022-09-20T06:22:07.273Z,9.21
2022-09-20T06:24:57.990Z,9.14
2022-09-20T06:27:34.081Z,9.07
2022-09-20T06:30:05.945Z,9.03
2022-09-20T06:32:34.295Z,9.08
2022-09-20T06:35:04.757Z,9.07
2022-09-20T06:38:02.400Z,9.03
2022-09-20T06:40:56.730Z,8.99
2022-09-20T06:43:24.547Z,8.99
2022-09-20T06:45:52.252Z,9.00
2022-09-20T06:48:19.969Z,9.03
2022-09-20T06:50:47.459Z,9.09
2022-09-20T06:53:20.484Z,9.19
2022-09-20T06:55:48.239Z,9.25
2022-09-20T06:58:15.921Z,9.31
2022-09-20T07:00:43.613Z,9.41
2022-09-20T07:03:12.591Z,9.52
2022-09-20T07:05:40.217Z,9.59
2022-09-20T07:08:07.821Z,9.57
2022-09-20T07:10:35.388Z,9.54
2022-09-20T07:13:03.583Z,9.52
2022-09-20T07:15:33.145Z,9.52
2022-09-20T07:18:01.197Z,9.48
2022-09-20T07:20:28.991Z,9.44
2022-09-20T07:22:56.779Z,9.38
2022-09-20T07:25:24.081Z,9.31
2022-09-20T07:27:51.683Z,9.23
2022-09-20T07:30:20.780Z,9.22
2022-09-20T07:32:48.375Z,9.25
2022-09-20T07:35:16.278Z,9.28
2022-09-20T07:37:44.235Z,9.27
2022-09-20T07:40:12.013Z,9.24
2022-09-20T07:42:39.669Z,9.35
2022-09-20T07:45:08.393Z,9.51
2022-09-20T07:47:35.768Z,9.65
2022-09-20T07:50:04.756Z,9.95
2022-09-20T07:52:32.124Z,10.29
2022-09-20T07:54:59.222Z,10.49
2022-09-20T07:57:26.576Z,10.57
2022-09-20T07:59:53.855Z,10.55
2022-09-20T08:02:20.972Z,10.53
2022-09-20T08:04:49.420Z,10.63
2022-09-20T08:07:16.791Z,10.85
2022-09-20T08:09:44.193Z,11.03
2022-09-20T08:14:42.449Z,11.02
2022-09-20T08:17:10.844Z,10.97
2022-09-20T08:19:42.528Z,10.89
2022-09-20T08:22:11.694Z,10.90
2022-09-20T08:24:39.058Z,10.93
2022-09-20T08:27:06.619Z,10.93
2022-09-20T08:29:34.387Z,10.87
2022-09-20T08:32:02.643Z,10.89
2022-09-20T08:34:30.519Z,11.12
2022-09-20T08:36:57.796Z,11.27
2022-09-20T08:42:03.654Z,11.44
2022-09-20T08:44:45.385Z,11.49
2022-09-20T08:47:22.489Z,11.51
2022-09-20T08:49:56.985Z,11.58
2022-09-20T08:52:36.235Z,11.56
2022-09-20T08:55:01.307Z,11.57
2022-09-20T08:57:33.439Z,11.58
2022-09-20T09:00:05.451Z,11.52
2022-09-20T09:02:33.887Z,11.48
2022-09-20T09:05:07.076Z,11.51
2022-09-20T09:07:34.376Z,11.50
2022-09-20T09:10:02.510Z,11.49
2022-09-20T09:12:32.876Z,11.45
2022-09-20T09:15:23.813Z,11.52
2022-09-20T09:17:51.278Z,11.62
2022-09-20T09:20:22.267Z,11.64
2022-09-20T09:23:04.471Z,11.64
2022-09-20T09:25:38.489Z,11.71
2022-09-20T09:28:13.366Z,11.89
2022-09-20T09:30:48.772Z,12.04
2022-09-20T09:33:33.164Z,12.12
2022-09-20T09:36:29.613Z,12.14
2022-09-20T09:39:24.974Z,12.06
2022-09-20T09:41:52.819Z,11.89
2022-09-20T09:44:30.018Z,11.62
2022-09-20T09:46:57.603Z,11.52
2022-09-20T09:49:32.614Z,11.54
2022-09-20T09:52:09.096Z,11.66
2022-09-20T09:54:41.626Z,11.80
2022-09-20T09:57:49.885Z,12.04
2022-09-20T10:00:22.494Z,12.23
2022-09-20T10:03:17.861Z,12.13
2022-09-20T10:06:01.180Z,11.99
2022-09-20T10:08:59.881Z,11.88
2022-09-20T10:11:37.146Z,11.82
2022-09-20T10:14:49.334Z,11.73
2022-09-20T10:17:41.958Z,11.67
2022-09-20T10:20:37.391Z,11.70
2022-09-20T10:24:01.220Z,11.72
2022-09-20T10:26:34.507Z,11.86
2022-09-20T10:29:28.920Z,12.07
2022-09-20T10:32:21.272Z,12.13
2022-09-20T10:35:28.137Z,12.16
2022-09-20T10:38:22.895Z,12.39
2022-09-20T10:41:43.393Z,12.83
2022-09-20T10:44:31.406Z,13.08
2022-09-20T10:47:17.723Z,13.24
2022-09-20T10:50:06.610Z,13.23
2022-09-20T10:53:02.382Z,13.18
2022-09-20T10:55:52.934Z,13.06
2022-09-20T10:59:03.919Z,12.84
2022-09-20T11:01:57.302Z,12.62
2022-09-20T11:05:00.769Z,12.45
2022-09-20T11:08:11.559Z,12.22
2022-09-20T11:11:16.637Z,12.03
2022-09-20T11:14:01.848Z,11.91
2022-09-20T11:16:50.463Z,11.87
2022-09-20T11:19:55.535Z,11.86
2022-09-20T11:22:45.312Z,11.87
2022-09-20T11:25:43.959Z,11.93
2022-09-20T11:28:25.940Z,11.98
2022-09-20T11:31:07.812Z,11.92
2022-09-20T11:33:53.113Z,11.97
2022-09-20T11:37:00.338Z,12.04
2022-09-20T11:39:55.236Z,12.12
2022-09-20T11:42:29.994Z,12.19
2022-09-20T11:44:57.515Z,12.23
2022-09-20T11:47:53.806Z,12.22
2022-09-20T11:50:17.175Z,12.24
2022-09-20T11:53:04.548Z,12.33
2022-09-20T11:55:49.854Z,12.46
2022-09-20T11:58:21.117Z,12.54
2022-09-20T12:00:53.883Z,12.68
2022-09-20T12:03:39.868Z,12.85
2022-09-20T12:06:29.819Z,13.01
2022-09-20T12:09:02.704Z,13.27
2022-09-20T12:11:39.503Z,13.55
2022-09-20T12:14:27.067Z,13.60
2022-09-20T12:16:56.492Z,13.61
2022-09-20T12:19:38.338Z,13.64
2022-09-20T12:22:12.172Z,13.70
2022-09-20T12:24:45.149Z,13.74
2022-09-20T12:27:32.123Z,13.83
2022-09-20T12:30:19.582Z,13.78
2022-09-20T12:32:51.737Z,13.65
2022-09-20T12:35:54.876Z,13.56
2022-09-20T12:38:27.576Z,13.52
2022-09-20T12:41:09.588Z,13.46
2022-09-20T12:43:48.101Z,13.37
2022-09-20T12:46:39.225Z,13.47
2022-09-20T12:49:51.777Z,13.68
2022-09-20T12:52:59.639Z,13.95
2022-09-20T12:55:33.342Z,14.20
2022-09-20T12:58:15.284Z,14.27
2022-09-20T13:00:58.802Z,14.18
2022-09-20T13:03:36.960Z,14.12
2022-09-20T13:06:16.041Z,14.01
2022-09-20T13:08:58.297Z,13.85
2022-09-20T13:11:42.029Z,13.78
2022-09-20T13:14:18.145Z,13.66
2022-09-20T13:17:14.017Z,13.56
2022-09-20T13:19:50.064Z,13.43
2022-09-20T13:22:37.703Z,13.32
2022-09-20T13:25:15.450Z,13.24
2022-09-20T13:28:12.472Z,13.13
2022-09-20T13:30:41.443Z,12.97
2022-09-20T13:33:24.804Z,12.99
2022-09-20T13:35:56.603Z,13.14
2022-09-20T13:38:29.592Z,13.31
2022-09-20T13:41:10.668Z,13.46
2022-09-20T13:43:45.886Z,13.57
2022-09-20T13:46:30.015Z,13.79
2022-09-20T13:49:18.964Z,13.88
2022-09-20T13:51:48.241Z,13.91
2022-09-20T13:54:33.367Z,13.96
2022-09-20T13:57:04.560Z,14.03
2022-09-20T13:59:44.795Z,13.98
2022-09-20T14:02:23.565Z,13.95
2022-09-20T14:04:55.571Z,13.87
2022-09-20T14:07:27.641Z,13.77
2022-09-20T14:09:56.423Z,13.53
2022-09-20T14:12:25.529Z,13.32
2022-09-20T14:14:53.767Z,13.30
2022-09-20T14:17:24.077Z,13.40
2022-09-20T14:19:54.250Z,13.50
2022-09-20T14:22:26.357Z,13.53
2022-09-20T14:25:05.472Z,13.53
2022-09-20T14:27:33.075Z,13.59
2022-09-20T14:30:02.655Z,13.56
2022-09-20T14:32:44.598Z,13.57
2022-09-20T14:35:21.506Z,13.60
2022-09-20T14:37:54.437Z,13.71
2022-09-20T14:40:30.179Z,13.74
2022-09-20T14:43:01.346Z,13.84
2022-09-20T14:45:34.175Z,13.91
2022-09-20T14:48:13.139Z,13.99
2022-09-20T14:50:46.504Z,13.89
2022-09-20T14:53:26.322Z,13.79
2022-09-20T14:56:07.689Z,13.66
2022-09-20T14:59:13.537Z,13.52
2022-09-20T15:01:47.061Z,13.31
2022-09-20T15:04:22.017Z,13.09
2022-09-20T15:06:50.654Z,12.90
2022-09-20T15:09:21.201Z,12.74
2022-09-20T15:12:15.667Z,12.63
2022-09-20T15:14:43.691Z,12.53
2022-09-20T15:17:18.082Z,12.46
2022-09-20T15:19:47.281Z,12.42
2022-09-20T15:22:15.680Z,12.36
2022-09-20T15:24:43.727Z,12.31
2022-09-20T15:27:14.167Z,12.28
2022-09-20T15:29:41.577Z,12.26
2022-09-20T15:32:12.845Z,12.20
2022-09-20T15:34:40.820Z,12.11
2022-09-20T15:37:08.318Z,12.07
2022-09-20T15:39:35.981Z,12.06
2022-09-20T15:42:04.130Z,12.06
2022-09-20T15:44:32.197Z,12.03
2022-09-20T15:46:59.804Z,12.03
2022-09-20T15:49:27.418Z,12.02
2022-09-20T15:51:54.750Z,11.97
2022-09-20T15:54:22.251Z,11.92
2022-09-20T15:56:51.769Z,11.87
2022-09-20T15:59:21.087Z,11.82
2022-09-20T16:01:49.154Z,11.80
2022-09-20T16:04:19.374Z,11.76
2022-09-20T16:06:49.838Z,11.68
2022-09-20T16:09:18.768Z,11.62
2022-09-20T16:11:47.917Z,11.53
2022-09-20T16:14:15.683Z,11.51
2022-09-20T16:16:43.032Z,11.49
2022-09-20T16:19:16.829Z,11.44
2022-09-20T16:21:57.300Z,11.39
2022-09-20T16:24:26.840Z,11.37
2022-09-20T16:26:54.558Z,11.36
2022-09-20T16:29:23.012Z,11.31
2022-09-20T16:31:50.611Z,11.26
2022-09-20T16:34:32.089Z,11.22
2022-09-20T16:37:16.891Z,11.19
2022-09-20T16:39:44.499Z,11.18
2022-09-20T16:42:12.687Z,11.18
2022-09-20T16:44:43.878Z,11.16
2022-09-20T16:47:16.596Z,11.14
2022-09-20T16:49:43.978Z,11.08
2022-09-20T16:52:11.608Z,11.01
2022-09-20T16:54:39.406Z,10.99
2022-09-20T16:57:07.629Z,10.94
2022-09-20T16:59:35.309Z,10.91
2022-09-20T17:02:02.922Z,10.89
2022-09-20T17:04:30.485Z,10.87
2022-09-20T17:06:58.201Z,10.83
2022-09-20T17:09:27.140Z,10.78
2022-09-20T17:11:55.236Z,10.74
2022-09-20T17:14:24.574Z,10.68
2022-09-20T17:16:52.237Z,10.62
2022-09-20T17:19:20.880Z,10.61
2022-09-20T17:21:50.669Z,10.62
2022-09-20T17:24:20.889Z,10.64
2022-09-20T17:26:50.072Z,10.66
2022-09-20T17:29:19.469Z,10.72
2022-09-20T17:31:55.097Z,10.75
2022-09-20T17:34:21.248Z,10.78
2022-09-20T17:36:50.363Z,10.79
2022-09-20T17:39:18.454Z,10.85
2022-09-20T17:41:49.081Z,10.92
2022-09-20T17:44:16.742Z,10.99
2022-09-20T17:46:48.887Z,11.07
2022-09-20T17:49:20.341Z,11.15
2022-09-20T17:51:51.868Z,11.23
2022-09-20T17:54:20.345Z,11.30
2022-09-20T17:56:51.059Z,11.36
2022-09-20T17:59:19.932Z,11.39
2022-09-20T18:01:50.609Z,11.43
2022-09-20T18:04:20.714Z,11.46
2022-09-20T18:06:52.091Z,11.47
2022-09-20T18:09:23.630Z,11.46
2022-09-20T18:11:53.411Z,11.44
2022-09-20T18:14:27.437Z,11.40
2022-09-20T18:17:00.228Z,11.38
2022-09-20T18:19:34.291Z,11.36
2022-09-20T18:22:03.589Z,11.31
2022-09-20T18:24:32.075Z,11.28
2022-09-20T18:27:00.267Z,11.22
2022-09-20T18:29:28.572Z,11.18
2022-09-20T18:31:57.258Z,11.14
2022-09-20T18:34:29.528Z,11.08
2022-09-20T18:36:59.268Z,11.04
2022-09-20T18:39:32.688Z,11.00
2022-09-20T18:42:02.041Z,10.93
2022-09-20T18:44:32.993Z,10.87
2022-09-20T18:47:02.789Z,10.79
2022-09-20T18:49:31.416Z,10.74
2022-09-20T18:51:58.952Z,10.68
2022-09-20T18:54:28.474Z,10.60
2022-09-20T18:56:56.469Z,10.53
2022-09-20T18:59:27.028Z,10.47
2022-09-20T19:02:11.147Z,10.39
2022-09-20T19:05:16.836Z,10.33
2022-09-20T19:08:11.473Z,10.28
2022-09-20T19:10:55.810Z,10.25
2022-09-20T19:14:03.477Z,10.24
2022-09-20T19:16:40.846Z,10.22
2022-09-20T19:19:33.240Z,10.20
2022-09-20T19:22:23.823Z,10.18
2022-09-20T19:25:11.920Z,10.18
2022-09-20T19:27:40.909Z,10.13
2022-09-20T19:30:13.149Z,10.07
2022-09-20T19:32:42.278Z,10.04
2022-09-20T19:35:19.942Z,9.98
2022-09-20T19:38:10.161Z,9.95
2022-09-20T19:41:13.590Z,9.93
2022-09-20T19:43:52.686Z,9.90
2022-09-20T19:46:44.299Z,9.84
2022-09-20T19:49:20.559Z,9.78
2022-09-20T19:51:48.896Z,9.71
2022-09-20T19:54:18.229Z,9.66
2022-09-20T19:56:53.757Z,9.56
2022-09-20T19:59:23.765Z,9.48
2022-09-20T20:01:52.244Z,9.41
2022-09-20T20:04:21.469Z,9.34
2022-09-20T20:07:06.596Z,9.28
2022-09-20T20:10:18.476Z,9.20
2022-09-20T20:13:11.561Z,9.12
2022-09-20T20:15:44.535Z,9.04
2022-09-20T20:18:56.495Z,8.99
2022-09-20T20:21:32.309Z,8.91
2022-09-20T20:24:51.493Z,8.83
2022-09-20T20:27:20.427Z,8.76
2022-09-20T20:29:48.243Z,8.68
2022-09-20T20:32:16.686Z,8.64
2022-09-20T20:34:44.812Z,8.61
2022-09-20T20:37:12.908Z,8.59
2022-09-20T20:39:42.583Z,8.59
2022-09-20T20:42:12.232Z,8.62
2022-09-20T20:44:40.543Z,8.66
2022-09-20T20:47:08.163Z,8.70
2022-09-20T20:49:35.710Z,8.74
2022-09-20T20:52:05.837Z,8.79
2022-09-20T20:54:33.537Z,8.83
2022-09-20T20:57:02.560Z,8.83
2022-09-20T20:59:30.061Z,8.83
2022-09-20T21:01:57.641Z,8.83
2022-09-20T21:04:27.021Z,8.84
2022-09-20T21:06:54.879Z,8.83
2022-09-20T21:09:22.348Z,8.80
2022-09-20T21:11:50.132Z,8.78
2022-09-20T21:14:17.836Z,8.75
2022-09-20T21:16:45.317Z,8.72
2022-09-20T21:19:15.224Z,8.67
2022-09-20T21:21:45.856Z,8.61
2022-09-20T21:24:16.692Z,8.57
2022-09-20T21:26:46.044Z,8.53
2022-09-20T21:29:16.133Z,8.52
2022-09-20T21:31:46.169Z,8.47
2022-09-20T21:34:15.573Z,8.39
2022-09-20T21:36:45.570Z,8.33
2022-09-20T21:39:13.413Z,8.29
2022-09-20T21:41:41.397Z,8.23
2022-09-20T21:44:11.100Z,8.17
2022-09-20T21:46:40.979Z,8.12
2022-09-20T21:49:11.152Z,8.06
2022-09-20T21:51:41.586Z,8.04
2022-09-20T21:54:10.413Z,8.01
2022-09-20T21:56:39.959Z,7.96
2022-09-20T21:59:07.635Z,7.92
2022-09-20T22:01:39.410Z,7.90
2022-09-20T22:04:10.047Z,7.87
2022-09-20T22:06:41.645Z,7.85
2022-09-20T22:09:15.091Z,7.83
2022-09-20T22:11:48.262Z,7.84
2022-09-20T22:14:18.905Z,7.89
2022-09-20T22:16:50.493Z,7.90
2022-09-20T22:19:18.636Z,7.91
2022-09-20T22:21:49.425Z,7.93
2022-09-20T22:24:18.197Z,7.95
2022-09-20T22:26:48.563Z,8.01
2022-09-20T22:29:17.005Z,8.01
2022-09-20T22:31:47.702Z,8.03
2022-09-20T22:34:19.575Z,8.00
2022-09-20T22:36:47.367Z,8.02
2022-09-20T22:39:15.687Z,8.02
2022-09-20T22:41:44.448Z,8.00
2022-09-20T22:44:11.933Z,8.01
2022-09-20T22:46:40.055Z,8.01
2022-09-20T22:49:09.015Z,8.05
2022-09-20T22:51:37.688Z,8.08
2022-09-20T22:54:09.552Z,8.09
2022-09-20T22:56:40.643Z,8.08
2022-09-20T22:59:11.971Z,8.07
2022-09-20T23:01:45.756Z,8.07
2022-09-20T23:04:17.472Z,8.06
2022-09-20T23:06:54.376Z,8.06
2022-09-20T23:09:25.057Z,8.04
2022-09-20T23:11:52.456Z,8.04
2022-09-20T23:14:21.789Z,8.01
2022-09-20T23:16:49.739Z,7.99
2022-09-20T23:19:17.357Z,7.97
2022-09-20T23:21:45.430Z,7.97
2022-09-20T23:24:15.509Z,7.95
2022-09-20T23:26:44.047Z,7.99
2022-09-20T23:29:15.302Z,8.03
2022-09-20T23:31:46.361Z,8.12
2022-09-20T23:34:16.020Z,8.20
2022-09-20T23:36:44.480Z,8.27
2022-09-20T23:39:12.221Z,8.32
2022-09-20T23:41:40.811Z,8.39
2022-09-20T23:44:09.651Z,8.44
2022-09-20T23:46:38.282Z,8.47
2022-09-20T23:49:06.166Z,8.50
2022-09-20T23:51:34.920Z,8.52
2022-09-20T23:54:02.641Z,8.52
2022-09-20T23:56:30.331Z,8.56
2022-09-20T23:58:57.894Z,8.60
